Time,TemperatureF,DewpointF,PressureIn,WindDirection,WindDirectionDegrees,WindSpeedMPH,WindSpeedGustMPH,Humidity,HourlyPrecipIn,Conditions,Clouds,dailyrainin,SoftwareType,DateUTC
2013-03-23 00:00:00,28.8,21.3,29.72,North,0,0.0,0.0,73,0.00,,,0.00,WUHU216HW,2013-03-23 04:00:00,
2013-03-23 00:05:00,28.8,21.3,29.72,North,0,0.0,0.0,73,0.00,,,0.00,WUHU216HW,2013-03-23 04:05:00,
2013-03-23 00:10:00,28.6,21.1,29.72,North,0,0.0,0.0,73,0.00,,,0.00,WUHU216HW,2013-03-23 04:10:00,
2013-03-23 00:15:00,28.6,21.1,29.72,North,0,0.0,0.0,73,0.00,,,0.00,WUHU216HW,2013-03-23 04:15:00,
2013-03-23 00:20:00,28.4,21.3,29.72,North,0,0.0,0.0,74,0.00,,,0.00,WUHU216HW,2013-03-23 04:20:00,
2013-03-23 00:25:00,28.4,21.3,29.73,North,0,0.0,0.0,74,0.00,,,0.00,WUHU216HW,2013-03-23 04:25:00,
2013-03-23 00:30:00,28.4,21.3,29.73,North,0,0.0,0.0,74,0.00,,,0.00,WUHU216HW,2013-03-23 04:30:00,
2013-03-23 00:37:00,28.4,21.3,29.73,North,0,0.0,0.0,74,0.00,,,0.00,WUHU216HW,2013-03-23 04:37:00,
2013-03-23 00:42:00,28.3,21.3,29.73,North,0,0.0,0.0,75,0.00,,,0.00,WUHU216HW,2013-03-23 04:42:00,
2013-03-23 00:47:00,28.1,21.2,29.73,North,0,0.0,0.0,75,0.00,,,0.00,WUHU216HW,2013-03-23 04:47:00,
2013-03-23 00:52:00,28.1,21.2,29.73,North,0,0.0,0.0,75,0.00,,,0.00,WUHU216HW,2013-03-23 04:52:00,
2013-03-23 00:57:00,28.1,21.2,29.73,North,0,0.0,0.0,75,0.00,,,0.00,WUHU216HW,2013-03-23 04:57:00,
2013-03-23 01:02:00,27.9,21.0,29.73,North,0,0.0,0.0,75,0.00,,,0.00,WUHU216HW,2013-03-23 05:02:00,
2013-03-23 01:07:00,27.9,21.2,29.73,North,0,0.0,0.0,76,0.00,,,0.00,WUHU216HW,2013-03-23 05:07:00,
2013-03-23 01:12:00,27.9,21.2,29.73,North,0,0.0,0.0,76,0.00,,,0.00,WUHU216HW,2013-03-23 05:12:00,
2013-03-23 01:17:00,27.7,21.1,29.73,North,0,0.0,0.0,76,0.00,,,0.00,WUHU216HW,2013-03-23 05:17:00,
2013-03-23 01:22:00,27.7,21.1,29.73,North,0,0.0,0.0,76,0.00,,,0.00,WUHU216HW,2013-03-23 05:22:00,
2013-03-23 01:27:00,27.7,20.8,29.73,North,0,0.0,0.0,75,0.00,,,0.00,WUHU216HW,2013-03-23 05:27:00,
2013-03-23 01:32:00,27.5,20.6,29.73,North,0,0.0,0.0,75,0.00,,,0.00,WUHU216HW,2013-03-23 05:32:00,
2013-03-23 01:37:00,27.4,20.4,29.73,North,0,0.0,0.0,75,0.00,,,0.00,WUHU216HW,2013-03-23 05:37:00,
2013-03-23 01:42:00,27.4,20.4,29.73,North,0,0.0,0.0,75,0.00,,,0.00,WUHU216HW,2013-03-23 05:42:00,
2013-03-23 01:47:00,27.2,20.3,29.73,North,0,0.0,0.0,75,0.00,,,0.00,WUHU216HW,2013-03-23 05:47:00,
2013-03-23 01:52:00,27.0,20.3,29.73,North,0,0.0,0.0,76,0.00,,,0.00,WUHU216HW,2013-03-23 05:52:00,
2013-03-23 01:57:00,27.0,20.3,29.73,North,0,0.0,0.0,76,0.00,,,0.00,WUHU216HW,2013-03-23 05:57:00,
2013-03-23 02:02:00,27.0,20.3,29.73,North,0,0.0,0.0,76,0.00,,,0.00,WUHU216HW,2013-03-23 06:02:00,
2013-03-23 02:07:00,27.0,20.3,29.73,North,0,0.0,0.0,76,0.00,,,0.00,WUHU216HW,2013-03-23 06:07:00,
2013-03-23 02:12:00,26.8,20.2,29.73,North,0,0.0,0.0,76,0.00,,,0.00,WUHU216HW,2013-03-23 06:12:00,
2013-03-23 02:17:00,26.6,20.4,29.73,North,0,0.0,0.0,77,0.00,,,0.00,WUHU216HW,2013-03-23 06:17:00,
2013-03-23 02:22:00,26.6,20.4,29.73,North,0,0.0,0.0,77,0.00,,,0.00,WUHU216HW,2013-03-23 06:22:00,
2013-03-23 02:27:00,26.6,20.4,29.73,North,0,0.0,0.0,77,0.00,,,0.00,WUHU216HW,2013-03-23 06:27:00,
2013-03-23 02:32:00,26.5,20.2,29.73,North,0,0.0,0.0,77,0.00,,,0.00,WUHU216HW,2013-03-23 06:32:00,
2013-03-23 02:37:00,26.3,20.0,29.74,North,0,0.0,0.0,77,0.00,,,0.00,WUHU216HW,2013-03-23 06:37:00,
2013-03-23 02:42:00,26.3,20.4,29.73,North,0,0.0,0.0,78,0.00,,,0.00,WUHU216HW,2013-03-23 06:42:00,
2013-03-23 02:47:00,26.3,20.4,29.73,North,0,0.0,0.0,78,0.00,,,0.00,WUHU216HW,2013-03-23 06:47:00,
2013-03-23 02:52:00,26.3,20.4,29.73,North,0,0.0,0.0,78,0.00,,,0.00,WUHU216HW,2013-03-23 06:52:00,
2013-03-23 02:57:00,26.3,20.4,29.74,North,0,0.0,0.0,78,0.00,,,0.00,WUHU216HW,2013-03-23 06:57:00,
2013-03-23 03:02:00,26.1,20.2,29.73,North,0,0.0,0.0,78,0.00,,,0.00,WUHU216HW,2013-03-23 07:02:00,
2013-03-23 03:07:00,26.1,20.4,29.73,North,0,0.0,0.0,79,0.00,,,0.00,WUHU216HW,2013-03-23 07:07:00,
2013-03-23 03:12:00,25.9,20.0,29.73,North,0,0.0,0.0,78,0.00,,,0.00,WUHU216HW,2013-03-23 07:12:00,
2013-03-23 03:17:00,25.7,19.8,29.73,North,0,0.0,0.0,78,0.00,,,0.00,WUHU216HW,2013-03-23 07:17:00,
2013-03-23 03:22:00,25.6,19.6,29.73,North,0,0.0,0.0,78,0.00,,,0.00,WUHU216HW,2013-03-23 07:22:00,
2013-03-23 03:27:00,25.4,19.4,29.73,North,0,0.0,0.0,78,0.00,,,0.00,WUHU216HW,2013-03-23 07:27:00,
2013-03-23 03:32:00,25.2,19.3,29.73,North,0,0.0,0.0,78,0.00,,,0.00,WUHU216HW,2013-03-23 07:32:00,
2013-03-23 03:37:00,24.8,19.0,29.73,North,0,0.0,0.0,78,0.00,,,0.00,WUHU216HW,2013-03-23 07:37:00,
2013-03-23 03:42:00,24.7,18.8,29.73,North,0,0.0,0.0,78,0.00,,,0.00,WUHU216HW,2013-03-23 07:42:00,
2013-03-23 03:47:00,24.5,18.6,29.73,North,0,0.0,0.0,78,0.00,,,0.00,WUHU216HW,2013-03-23 07:47:00,
2013-03-23 03:52:00,24.3,18.5,29.73,North,0,0.0,0.0,78,0.00,,,0.00,WUHU216HW,2013-03-23 07:52:00,
2013-03-23 03:57:00,24.1,18.3,29.73,North,0,0.0,0.0,78,0.00,,,0.00,WUHU216HW,2013-03-23 07:57:00,
2013-03-23 04:02:00,24.1,18.5,29.73,North,0,0.0,0.0,79,0.00,,,0.00,WUHU216HW,2013-03-23 08:02:00,
2013-03-23 04:07:00,24.1,18.5,29.73,North,0,0.0,0.0,79,0.00,,,0.00,WUHU216HW,2013-03-23 08:07:00,
2013-03-23 04:12:00,23.9,18.4,29.73,North,0,0.0,0.0,79,0.00,,,0.00,WUHU216HW,2013-03-23 08:12:00,
2013-03-23 04:17:00,23.9,18.4,29.72,North,0,0.0,0.0,79,0.00,,,0.00,WUHU216HW,2013-03-23 08:17:00,
2013-03-23 04:22:00,24.1,18.9,29.72,North,0,0.0,0.0,80,0.00,,,0.00,WUHU216HW,2013-03-23 08:22:00,
2013-03-23 04:27:00,24.1,18.9,29.72,North,0,0.0,0.0,80,0.00,,,0.00,WUHU216HW,2013-03-23 08:27:00,
2013-03-23 04:32:00,23.9,18.7,29.72,North,0,0.0,0.0,80,0.00,,,0.00,WUHU216HW,2013-03-23 08:32:00,
2013-03-23 04:37:00,23.9,18.7,29.72,North,0,0.0,0.0,80,0.00,,,0.00,WUHU216HW,2013-03-23 08:37:00,
2013-03-23 04:42:00,23.8,18.3,29.72,North,0,0.0,0.0,79,0.00,,,0.00,WUHU216HW,2013-03-23 08:42:00,
2013-03-23 04:47:00,23.8,18.5,29.73,North,0,0.0,0.0,80,0.00,,,0.00,WUHU216HW,2013-03-23 08:47:00,
2013-03-23 04:52:00,23.8,18.5,29.72,North,0,0.0,0.0,80,0.00,,,0.00,WUHU216HW,2013-03-23 08:52:00,
2013-03-23 04:57:00,23.9,18.7,29.73,North,0,0.0,0.0,80,0.00,,,0.00,WUHU216HW,2013-03-23 08:57:00,
2013-03-23 05:02:00,23.8,18.5,29.73,North,0,0.0,0.0,80,0.00,,,0.00,WUHU216HW,2013-03-23 09:02:00,
2013-03-23 05:07:00,23.6,18.4,29.72,North,0,0.0,0.0,80,0.00,,,0.00,WUHU216HW,2013-03-23 09:07:00,
2013-03-23 05:12:00,23.6,18.4,29.72,North,0,0.0,0.0,80,0.00,,,0.00,WUHU216HW,2013-03-23 09:12:00,
2013-03-23 05:17:00,23.4,18.2,29.72,North,0,0.0,0.0,80,0.00,,,0.00,WUHU216HW,2013-03-23 09:17:00,
2013-03-23 05:22:00,23.4,18.2,29.73,North,0,0.0,0.0,80,0.00,,,0.00,WUHU216HW,2013-03-23 09:22:00,
2013-03-23 05:27:00,23.2,18.0,29.73,North,0,0.0,0.0,80,0.00,,,0.00,WUHU216HW,2013-03-23 09:27:00,
2013-03-23 05:32:00,22.9,17.6,29.73,North,0,0.0,0.0,80,0.00,,,0.00,WUHU216HW,2013-03-23 09:32:00,
2013-03-23 05:37:00,22.7,17.5,29.73,North,0,0.0,0.0,80,0.00,,,0.00,WUHU216HW,2013-03-23 09:37:00,
2013-03-23 05:42:00,22.3,17.1,29.73,North,0,0.0,0.0,80,0.00,,,0.00,WUHU216HW,2013-03-23 09:42:00,
2013-03-23 05:47:00,22.3,17.1,29.73,North,0,0.0,0.0,80,0.00,,,0.00,WUHU216HW,2013-03-23 09:47:00,
2013-03-23 05:52:00,22.1,17.2,29.73,North,0,0.0,0.0,81,0.00,,,0.00,WUHU216HW,2013-03-23 09:52:00,
2013-03-23 05:57:00,22.1,17.2,29.73,North,0,0.0,0.0,81,0.00,,,0.00,WUHU216HW,2013-03-23 09:57:00,
2013-03-23 06:02:00,22.1,17.2,29.73,North,0,0.0,0.0,81,0.00,,,0.00,WUHU216HW,2013-03-23 10:02:00,
2013-03-23 06:07:00,22.1,17.2,29.74,North,0,0.0,0.0,81,0.00,,,0.00,WUHU216HW,2013-03-23 10:07:00,
2013-03-23 06:12:00,22.1,17.5,29.74,North,0,0.0,0.0,82,0.00,,,0.00,WUHU216HW,2013-03-23 10:12:00,
2013-03-23 06:17:00,22.5,17.8,29.74,North,0,0.0,0.0,82,0.00,,,0.00,WUHU216HW,2013-03-23 10:17:00,
2013-03-23 06:22:00,22.5,17.8,29.74,North,0,0.0,0.0,82,0.00,,,0.00,WUHU216HW,2013-03-23 10:22:00,
2013-03-23 06:27:00,22.3,17.6,29.74,North,0,0.0,0.0,82,0.00,,,0.00,WUHU216HW,2013-03-23 10:27:00,
2013-03-23 06:32:00,22.1,17.5,29.74,North,0,0.0,0.0,82,0.00,,,0.00,WUHU216HW,2013-03-23 10:32:00,
2013-03-23 06:37:00,22.0,17.3,29.74,North,0,0.0,0.0,82,0.00,,,0.00,WUHU216HW,2013-03-23 10:37:00,
2013-03-23 06:42:00,22.0,17.3,29.74,North,0,0.0,0.0,82,0.00,,,0.00,WUHU216HW,2013-03-23 10:42:00,
2013-03-23 06:47:00,22.1,17.5,29.74,North,0,0.0,0.0,82,0.00,,,0.00,WUHU216HW,2013-03-23 10:47:00,
2013-03-23 06:52:00,22.0,17.3,29.74,North,0,0.0,0.0,82,0.00,,,0.00,WUHU216HW,2013-03-23 10:52:00,
2013-03-23 06:57:00,22.0,17.3,29.75,North,0,0.0,0.0,82,0.00,,,0.00,WUHU216HW,2013-03-23 10:57:00,
2013-03-23 07:02:00,21.8,17.1,29.75,North,0,0.0,0.0,82,0.00,,,0.00,WUHU216HW,2013-03-23 11:02:00,
2013-03-23 07:07:00,21.6,16.9,29.75,North,0,0.0,0.0,82,0.00,,,0.00,WUHU216HW,2013-03-23 11:07:00,
2013-03-23 07:12:00,21.8,17.1,29.75,North,0,0.0,0.0,82,0.00,,,0.00,WUHU216HW,2013-03-23 11:12:00,
2013-03-23 07:17:00,21.8,17.1,29.75,North,0,0.0,0.0,82,0.00,,,0.00,WUHU216HW,2013-03-23 11:17:00,
2013-03-23 07:22:00,22.0,17.3,29.75,North,0,0.0,0.0,82,0.00,,,0.00,WUHU216HW,2013-03-23 11:22:00,
2013-03-23 07:27:00,22.0,17.3,29.75,North,0,0.0,0.0,82,0.00,,,0.00,WUHU216HW,2013-03-23 11:27:00,
2013-03-23 07:32:00,22.0,17.3,29.76,North,0,0.0,0.0,82,0.00,,,0.00,WUHU216HW,2013-03-23 11:32:00,
2013-03-23 07:37:00,22.3,17.9,29.75,North,0,0.0,0.0,83,0.00,,,0.00,WUHU216HW,2013-03-23 11:37:00,
2013-03-23 07:42:00,22.7,18.3,29.76,North,0,0.0,0.0,83,0.00,,,0.00,WUHU216HW,2013-03-23 11:42:00,
2013-03-23 07:47:00,23.0,18.6,29.76,North,0,0.0,0.0,83,0.00,,,0.00,WUHU216HW,2013-03-23 11:47:00,
2013-03-23 07:52:00,23.4,19.0,29.76,North,0,0.0,0.0,83,0.00,,,0.00,WUHU216HW,2013-03-23 11:52:00,
2013-03-23 07:57:00,23.6,19.2,29.76,North,0,0.0,0.0,83,0.00,,,0.00,WUHU216HW,2013-03-23 11:57:00,
2013-03-23 08:02:00,24.1,19.7,29.76,North,0,0.0,0.0,83,0.00,,,0.00,WUHU216HW,2013-03-23 12:02:00,
2013-03-23 08:08:00,24.3,19.9,29.76,North,0,0.0,0.0,83,0.00,,,0.00,WUHU216HW,2013-03-23 12:08:00,
2013-03-23 08:13:00,24.8,20.4,29.76,North,0,0.0,0.0,83,0.00,,,0.00,WUHU216HW,2013-03-23 12:13:00,
2013-03-23 08:18:00,25.2,20.8,29.76,North,0,0.0,0.0,83,0.00,,,0.00,WUHU216HW,2013-03-23 12:18:00,
2013-03-23 08:23:00,25.6,21.1,29.76,North,0,0.0,0.0,83,0.00,,,0.00,WUHU216HW,2013-03-23 12:23:00,
2013-03-23 08:28:00,25.7,21.2,29.76,North,0,0.0,0.0,83,0.00,,,0.00,WUHU216HW,2013-03-23 12:28:00,
2013-03-23 08:33:00,26.3,22.1,29.76,North,0,0.0,0.0,84,0.00,,,0.00,WUHU216HW,2013-03-23 12:33:00,
2013-03-23 08:38:00,26.6,22.2,29.76,North,0,0.0,0.0,83,0.00,,,0.00,WUHU216HW,2013-03-23 12:38:00,
2013-03-23 08:43:00,27.0,22.5,29.76,North,0,0.0,0.0,83,0.00,,,0.00,WUHU216HW,2013-03-23 12:43:00,
2013-03-23 08:48:00,27.4,22.9,29.76,North,0,0.0,0.0,83,0.00,,,0.00,WUHU216HW,2013-03-23 12:48:00,
2013-03-23 08:53:00,27.7,23.2,29.77,North,0,0.0,0.0,83,0.00,,,0.00,WUHU216HW,2013-03-23 12:53:00,
2013-03-23 08:58:00,28.3,23.1,29.77,North,0,0.0,0.0,81,0.00,,,0.00,WUHU216HW,2013-03-23 12:58:00,
2013-03-23 09:03:00,28.6,23.5,29.78,North,0,0.0,0.0,81,0.00,,,0.00,WUHU216HW,2013-03-23 13:03:00,
2013-03-23 09:08:00,29.0,23.3,29.78,North,0,0.0,0.0,79,0.00,,,0.00,WUHU216HW,2013-03-23 13:08:00,
2013-03-23 09:13:00,29.2,23.5,29.78,North,0,0.0,0.0,79,0.00,,,0.00,WUHU216HW,2013-03-23 13:13:00,
2013-03-23 09:18:00,29.5,23.5,29.78,North,0,0.0,0.0,78,0.00,,,0.00,WUHU216HW,2013-03-23 13:18:00,
2013-03-23 09:23:00,29.7,23.1,29.78,North,0,0.0,0.0,76,0.00,,,0.00,WUHU216HW,2013-03-23 13:23:00,
2013-03-23 09:28:00,29.7,23.1,29.78,North,0,0.0,0.0,76,0.00,,,0.00,WUHU216HW,2013-03-23 13:28:00,
2013-03-23 09:33:00,29.9,23.5,29.79,North,0,0.0,0.0,77,0.00,,,0.00,WUHU216HW,2013-03-23 13:33:00,
2013-03-23 09:38:00,30.2,23.6,29.78,North,0,0.0,0.0,76,0.00,,,0.00,WUHU216HW,2013-03-23 13:38:00,
2013-03-23 09:43:00,30.2,23.6,29.78,North,0,0.0,0.0,76,0.00,,,0.00,WUHU216HW,2013-03-23 13:43:00,
2013-03-23 09:48:00,30.2,23.2,29.79,North,0,0.0,0.0,75,0.00,,,0.00,WUHU216HW,2013-03-23 13:48:00,
2013-03-23 09:53:00,30.2,23.2,29.79,North,0,0.0,0.0,75,0.00,,,0.00,WUHU216HW,2013-03-23 13:53:00,
2013-03-23 09:58:00,30.2,23.2,29.79,North,0,0.0,0.0,75,0.00,,,0.00,WUHU216HW,2013-03-23 13:58:00,
2013-03-23 10:03:00,30.4,23.0,29.79,North,0,0.0,0.0,74,0.00,,,0.00,WUHU216HW,2013-03-23 14:03:00,
2013-03-23 10:08:00,30.4,23.0,29.79,North,0,0.0,0.0,74,0.00,,,0.00,WUHU216HW,2013-03-23 14:08:00,
2013-03-23 10:13:00,30.6,23.2,29.79,North,0,0.0,0.0,74,0.00,,,0.00,WUHU216HW,2013-03-23 14:13:00,
2013-03-23 10:18:00,30.8,23.4,29.79,North,0,0.0,0.0,74,0.00,,,0.00,WUHU216HW,2013-03-23 14:18:00,
2013-03-23 10:23:00,31.0,23.3,29.79,North,0,0.0,0.0,73,0.00,,,0.00,WUHU216HW,2013-03-23 14:23:00,
2013-03-23 10:28:00,31.1,23.8,29.79,North,0,0.0,0.0,74,0.00,,,0.00,WUHU216HW,2013-03-23 14:28:00,
2013-03-23 10:33:00,31.3,23.7,29.80,North,0,0.0,0.0,73,0.00,,,0.00,WUHU216HW,2013-03-23 14:33:00,
2013-03-23 10:38:00,31.1,23.5,29.80,North,0,0.0,0.0,73,0.00,,,0.00,WUHU216HW,2013-03-23 14:38:00,
2013-03-23 10:43:00,31.3,23.7,29.80,North,0,0.0,0.0,73,0.00,,,0.00,WUHU216HW,2013-03-23 14:43:00,
2013-03-23 10:48:00,31.3,23.3,29.80,North,0,0.0,0.0,72,0.00,,,0.00,WUHU216HW,2013-03-23 14:48:00,
2013-03-23 10:53:00,31.3,23.3,29.80,North,0,0.0,0.0,72,0.00,,,0.00,WUHU216HW,2013-03-23 14:53:00,
2013-03-23 10:58:00,31.7,23.7,29.80,North,0,0.0,0.0,72,0.00,,,0.00,WUHU216HW,2013-03-23 14:58:00,
2013-03-23 11:03:00,31.9,24.2,29.80,North,0,0.0,0.0,73,0.00,,,0.00,WUHU216HW,2013-03-23 15:03:00,
2013-03-23 11:08:00,31.9,23.6,29.80,North,0,0.0,0.0,71,0.00,,,0.00,WUHU216HW,2013-03-23 15:08:00,
2013-03-23 11:13:00,31.7,23.4,29.80,North,0,0.0,0.0,71,0.00,,,0.00,WUHU216HW,2013-03-23 15:13:00,
2013-03-23 11:18:00,31.7,23.4,29.80,North,0,0.0,0.0,71,0.00,,,0.00,WUHU216HW,2013-03-23 15:18:00,
2013-03-23 11:23:00,31.9,23.9,29.80,North,0,0.0,0.0,72,0.00,,,0.00,WUHU216HW,2013-03-23 15:23:00,
2013-03-23 11:28:00,32.0,23.8,29.80,North,0,0.0,0.0,71,0.00,,,0.00,WUHU216HW,2013-03-23 15:28:00,
2013-03-23 11:33:00,32.0,23.8,29.80,North,0,0.0,0.0,71,0.00,,,0.00,WUHU216HW,2013-03-23 15:33:00,
2013-03-23 11:38:00,32.2,23.9,29.81,North,0,0.0,0.0,71,0.00,,,0.00,WUHU216HW,2013-03-23 15:38:00,
2013-03-23 11:43:00,32.2,23.6,29.81,North,0,0.0,0.0,70,0.00,,,0.00,WUHU216HW,2013-03-23 15:43:00,
2013-03-23 11:48:00,32.2,23.6,29.81,North,0,0.0,0.0,70,0.00,,,0.00,WUHU216HW,2013-03-23 15:48:00,
2013-03-23 11:53:00,32.8,24.0,29.81,North,0,0.0,0.0,70,0.00,,,0.00,WUHU216HW,2013-03-23 15:53:00,
2013-03-23 11:58:00,33.1,24.4,29.81,North,0,0.0,0.0,70,0.00,,,0.00,WUHU216HW,2013-03-23 15:58:00,
2013-03-23 12:03:00,33.1,24.0,29.81,North,0,0.0,0.0,69,0.00,,,0.00,WUHU216HW,2013-03-23 16:03:00,
2013-03-23 12:08:00,33.3,24.2,29.81,North,0,0.0,0.0,69,0.00,,,0.00,WUHU216HW,2013-03-23 16:08:00,
2013-03-23 12:13:00,33.5,24.7,29.81,North,0,0.0,0.0,70,0.00,,,0.00,WUHU216HW,2013-03-23 16:13:00,
2013-03-23 12:18:00,34.7,25.9,29.81,North,0,0.0,0.0,70,0.00,,,0.00,WUHU216HW,2013-03-23 16:18:00,
2013-03-23 12:23:00,35.1,25.9,29.81,North,0,0.0,0.0,69,0.00,,,0.00,WUHU216HW,2013-03-23 16:23:00,
2013-03-23 12:28:00,36.0,26.5,29.81,North,0,0.0,0.0,68,0.00,,,0.00,WUHU216HW,2013-03-23 16:28:00,
2013-03-23 12:33:00,36.4,26.8,29.81,North,0,0.0,0.0,68,0.00,,,0.00,WUHU216HW,2013-03-23 16:33:00,
2013-03-23 12:38:00,36.4,25.8,29.81,North,0,0.0,0.0,65,0.00,,,0.00,WUHU216HW,2013-03-23 16:38:00,
2013-03-23 12:43:00,36.0,25.8,29.81,North,0,0.0,0.0,66,0.00,,,0.00,WUHU216HW,2013-03-23 16:43:00,
2013-03-23 12:48:00,36.4,26.5,29.81,North,0,0.0,0.0,67,0.00,,,0.00,WUHU216HW,2013-03-23 16:48:00,
2013-03-23 12:53:00,36.4,25.4,29.81,North,0,0.0,0.0,64,0.00,,,0.00,WUHU216HW,2013-03-23 16:53:00,
2013-03-23 12:58:00,35.8,24.9,29.81,North,0,0.0,0.0,64,0.00,,,0.00,WUHU216HW,2013-03-23 16:58:00,
2013-03-23 13:03:00,35.8,24.9,29.81,North,0,0.0,0.0,64,0.00,,,0.00,WUHU216HW,2013-03-23 17:03:00,
2013-03-23 13:08:00,35.8,24.5,29.81,North,0,0.0,0.0,63,0.00,,,0.00,WUHU216HW,2013-03-23 17:08:00,
2013-03-23 13:13:00,36.0,24.7,29.81,North,0,0.0,0.0,63,0.00,,,0.00,WUHU216HW,2013-03-23 17:13:00,
2013-03-23 13:18:00,36.0,24.7,29.81,North,0,0.0,0.0,63,0.00,,,0.00,WUHU216HW,2013-03-23 17:18:00,
2013-03-23 13:23:00,36.4,24.9,29.81,North,0,0.0,0.0,63,0.00,,,0.00,WUHU216HW,2013-03-23 17:23:00,
2013-03-23 13:28:00,36.9,25.5,29.81,North,0,0.0,0.0,63,0.00,,,0.00,WUHU216HW,2013-03-23 17:28:00,
2013-03-23 13:33:00,36.5,24.8,29.81,North,0,0.0,0.0,62,0.00,,,0.00,WUHU216HW,2013-03-23 17:33:00,
2013-03-23 13:38:00,36.7,24.9,29.81,North,0,0.0,0.0,62,0.00,,,0.00,WUHU216HW,2013-03-23 17:38:00,
2013-03-23 13:43:00,37.1,25.7,29.81,North,0,0.0,0.0,63,0.00,,,0.00,WUHU216HW,2013-03-23 17:43:00,
2013-03-23 13:48:00,37.6,25.7,29.81,North,0,0.0,0.0,62,0.00,,,0.00,WUHU216HW,2013-03-23 17:48:00,
2013-03-23 13:53:00,37.8,26.3,29.80,North,0,0.0,0.0,63,0.00,,,0.00,WUHU216HW,2013-03-23 17:53:00,
2013-03-23 13:58:00,38.9,27.3,29.80,North,0,0.0,0.0,63,0.00,,,0.00,WUHU216HW,2013-03-23 17:58:00,
2013-03-23 14:03:00,39.4,27.4,29.80,North,0,0.0,0.0,62,0.00,,,0.00,WUHU216HW,2013-03-23 18:03:00,
2013-03-23 14:08:00,38.9,26.1,29.80,North,0,0.0,0.0,60,0.00,,,0.00,WUHU216HW,2013-03-23 18:08:00,
2013-03-23 14:13:00,38.5,25.8,29.80,North,0,0.0,0.0,60,0.00,,,0.00,WUHU216HW,2013-03-23 18:13:00,
2013-03-23 14:18:00,38.3,25.7,29.80,North,0,0.0,0.0,60,0.00,,,0.00,WUHU216HW,2013-03-23 18:18:00,
2013-03-23 14:23:00,38.0,25.3,29.80,North,0,0.0,0.0,60,0.00,,,0.00,WUHU216HW,2013-03-23 18:23:00,
2013-03-23 14:28:00,37.8,25.2,29.80,North,0,0.0,0.0,60,0.00,,,0.00,WUHU216HW,2013-03-23 18:28:00,
2013-03-23 14:33:00,38.5,26.2,29.80,North,0,0.0,0.0,61,0.00,,,0.00,WUHU216HW,2013-03-23 18:33:00,
2013-03-23 14:38:00,39.2,26.5,29.79,North,0,0.0,0.0,60,0.00,,,0.00,WUHU216HW,2013-03-23 18:38:00,
2013-03-23 14:43:00,38.9,25.3,29.79,North,0,0.0,0.0,58,0.00,,,0.00,WUHU216HW,2013-03-23 18:43:00,
2013-03-23 14:48:00,38.7,25.1,29.79,North,0,0.0,0.0,58,0.00,,,0.00,WUHU216HW,2013-03-23 18:48:00,
2013-03-23 14:53:00,38.9,25.8,29.79,North,0,0.0,0.0,59,0.00,,,0.00,WUHU216HW,2013-03-23 18:53:00,
2013-03-23 14:58:00,38.9,25.8,29.79,North,0,0.0,0.0,59,0.00,,,0.00,WUHU216HW,2013-03-23 18:58:00,
2013-03-23 15:03:00,38.5,25.4,29.79,North,0,0.0,0.0,59,0.00,,,0.00,WUHU216HW,2013-03-23 19:03:00,
2013-03-23 15:08:00,38.0,24.9,29.79,North,0,0.0,0.0,59,0.00,,,0.00,WUHU216HW,2013-03-23 19:08:00,
2013-03-23 15:13:00,38.3,25.7,29.78,North,0,0.0,0.0,60,0.00,,,0.00,WUHU216HW,2013-03-23 19:13:00,
2013-03-23 15:18:00,38.9,26.1,29.79,North,0,0.0,0.0,60,0.00,,,0.00,WUHU216HW,2013-03-23 19:18:00,
2013-03-23 15:23:00,38.9,25.3,29.79,North,0,0.0,0.0,58,0.00,,,0.00,WUHU216HW,2013-03-23 19:23:00,
2013-03-23 15:28:00,37.8,24.3,29.78,North,0,0.0,0.0,58,0.00,,,0.00,WUHU216HW,2013-03-23 19:28:00,
2013-03-23 15:33:00,37.4,24.4,29.78,North,0,0.0,0.0,59,0.00,,,0.00,WUHU216HW,2013-03-23 19:33:00,
2013-03-23 15:38:00,37.8,24.8,29.78,North,0,0.0,0.0,59,0.00,,,0.00,WUHU216HW,2013-03-23 19:38:00,
2013-03-23 15:43:00,38.2,25.0,29.78,North,0,0.0,0.0,59,0.00,,,0.00,WUHU216HW,2013-03-23 19:43:00,
2013-03-23 15:48:00,38.5,25.8,29.78,North,0,0.0,0.0,60,0.00,,,0.00,WUHU216HW,2013-03-23 19:48:00,
2013-03-23 15:53:00,38.9,25.8,29.78,North,0,0.0,0.0,59,0.00,,,0.00,WUHU216HW,2013-03-23 19:53:00,
2013-03-23 15:58:00,38.9,25.8,29.78,North,0,0.0,0.0,59,0.00,,,0.00,WUHU216HW,2013-03-23 19:58:00,
2013-03-23 16:03:00,38.7,25.1,29.78,North,0,0.0,0.0,58,0.00,,,0.00,WUHU216HW,2013-03-23 20:03:00,
2013-03-23 16:08:00,38.2,25.0,29.78,North,0,0.0,0.0,59,0.00,,,0.00,WUHU216HW,2013-03-23 20:08:00,
2013-03-23 16:13:00,38.5,25.4,29.77,North,0,0.0,0.0,59,0.00,,,0.00,WUHU216HW,2013-03-23 20:13:00,
2013-03-23 16:18:00,38.5,24.9,29.77,North,0,0.0,0.0,58,0.00,,,0.00,WUHU216HW,2013-03-23 20:18:00,
2013-03-23 16:23:00,39.2,26.0,29.77,North,0,0.0,0.0,59,0.00,,,0.00,WUHU216HW,2013-03-23 20:23:00,
2013-03-23 16:28:00,38.7,25.1,29.78,North,0,0.0,0.0,58,0.00,,,0.00,WUHU216HW,2013-03-23 20:28:00,
2013-03-23 16:33:00,38.5,24.9,29.78,North,0,0.0,0.0,58,0.00,,,0.00,WUHU216HW,2013-03-23 20:33:00,
2013-03-23 16:38:00,38.7,25.1,29.78,North,0,0.0,0.0,58,0.00,,,0.00,WUHU216HW,2013-03-23 20:38:00,
2013-03-23 16:43:00,38.9,25.3,29.78,North,0,0.0,0.0,58,0.00,,,0.00,WUHU216HW,2013-03-23 20:43:00,
2013-03-23 16:48:00,38.5,24.5,29.78,North,0,0.0,0.0,57,0.00,,,0.00,WUHU216HW,2013-03-23 20:48:00,
2013-03-23 16:53:00,38.2,24.7,29.78,North,0,0.0,0.0,58,0.00,,,0.00,WUHU216HW,2013-03-23 20:53:00,
2013-03-23 16:59:00,38.2,24.7,29.79,North,0,0.0,0.0,58,0.00,,,0.00,WUHU216HW,2013-03-23 20:59:00,
2013-03-23 17:04:00,38.0,24.5,29.78,North,0,0.0,0.0,58,0.00,,,0.00,WUHU216HW,2013-03-23 21:04:00,
2013-03-23 17:09:00,37.6,24.1,29.78,North,0,0.0,0.0,58,0.00,,,0.00,WUHU216HW,2013-03-23 21:09:00,
2013-03-23 17:14:00,37.4,24.4,29.78,North,0,0.0,0.0,59,0.00,,,0.00,WUHU216HW,2013-03-23 21:14:00,
2013-03-23 17:19:00,37.6,24.6,29.77,North,0,0.0,0.0,59,0.00,,,0.00,WUHU216HW,2013-03-23 21:19:00,
2013-03-23 17:24:00,38.2,25.0,29.78,North,0,0.0,0.0,59,0.00,,,0.00,WUHU216HW,2013-03-23 21:24:00,
2013-03-23 17:29:00,38.2,24.7,29.78,North,0,0.0,0.0,58,0.00,,,0.00,WUHU216HW,2013-03-23 21:29:00,
2013-03-23 17:34:00,38.2,24.7,29.79,North,0,0.0,0.0,58,0.00,,,0.00,WUHU216HW,2013-03-23 21:34:00,
2013-03-23 17:39:00,37.8,24.8,29.79,North,0,0.0,0.0,59,0.00,,,0.00,WUHU216HW,2013-03-23 21:39:00,
2013-03-23 17:44:00,37.8,24.8,29.79,North,0,0.0,0.0,59,0.00,,,0.00,WUHU216HW,2013-03-23 21:44:00,
2013-03-23 17:49:00,37.6,24.6,29.79,North,0,0.0,0.0,59,0.00,,,0.00,WUHU216HW,2013-03-23 21:49:00,
2013-03-23 17:54:00,37.1,24.1,29.79,North,0,0.0,0.0,59,0.00,,,0.00,WUHU216HW,2013-03-23 21:54:00,
2013-03-23 17:59:00,37.1,24.5,29.78,North,0,0.0,0.0,60,0.00,,,0.00,WUHU216HW,2013-03-23 21:59:00,
2013-03-23 18:04:00,36.9,24.4,29.78,North,0,0.0,0.0,60,0.00,,,0.00,WUHU216HW,2013-03-23 22:04:00,
2013-03-23 18:09:00,36.7,24.2,29.77,North,0,0.0,0.0,60,0.00,,,0.00,WUHU216HW,2013-03-23 22:09:00,
2013-03-23 18:14:00,36.5,24.0,29.77,North,0,0.0,0.0,60,0.00,,,0.00,WUHU216HW,2013-03-23 22:14:00,
2013-03-23 18:19:00,36.5,24.0,29.77,North,0,0.0,0.0,60,0.00,,,0.00,WUHU216HW,2013-03-23 22:19:00,
2013-03-23 18:24:00,36.7,24.2,29.78,North,0,0.0,0.0,60,0.00,,,0.00,WUHU216HW,2013-03-23 22:24:00,
2013-03-23 18:29:00,36.7,24.2,29.78,North,0,0.0,0.0,60,0.00,,,0.00,WUHU216HW,2013-03-23 22:29:00,
2013-03-23 18:34:00,36.7,24.2,29.78,North,0,0.0,0.0,60,0.00,,,0.00,WUHU216HW,2013-03-23 22:34:00,
2013-03-23 18:39:00,36.7,24.2,29.78,North,0,0.0,0.0,60,0.00,,,0.00,WUHU216HW,2013-03-23 22:39:00,
2013-03-23 18:44:00,36.4,23.9,29.78,North,0,0.0,0.0,60,0.00,,,0.00,WUHU216HW,2013-03-23 22:44:00,
2013-03-23 18:49:00,36.4,23.9,29.77,North,0,0.0,0.0,60,0.00,,,0.00,WUHU216HW,2013-03-23 22:49:00,
2013-03-23 18:54:00,36.4,23.9,29.78,North,0,0.0,0.0,60,0.00,,,0.00,WUHU216HW,2013-03-23 22:54:00,
2013-03-23 18:59:00,36.2,23.7,29.78,North,0,0.0,0.0,60,0.00,,,0.00,WUHU216HW,2013-03-23 22:59:00,
2013-03-23 19:04:00,35.8,23.8,29.77,North,0,0.0,0.0,61,0.00,,,0.00,WUHU216HW,2013-03-23 23:04:00,
2013-03-23 19:09:00,35.6,23.6,29.77,North,0,0.0,0.0,61,0.00,,,0.00,WUHU216HW,2013-03-23 23:09:00,
2013-03-23 19:14:00,35.3,23.2,29.78,North,0,0.0,0.0,61,0.00,,,0.00,WUHU216HW,2013-03-23 23:14:00,
2013-03-23 19:19:00,35.3,23.2,29.77,North,0,0.0,0.0,61,0.00,,,0.00,WUHU216HW,2013-03-23 23:19:00,
2013-03-23 19:24:00,34.9,23.2,29.77,North,0,0.0,0.0,62,0.00,,,0.00,WUHU216HW,2013-03-23 23:24:00,
2013-03-23 19:29:00,34.6,22.9,29.77,North,0,0.0,0.0,62,0.00,,,0.00,WUHU216HW,2013-03-23 23:29:00,
2013-03-23 19:34:00,34.2,22.9,29.77,North,0,0.0,0.0,63,0.00,,,0.00,WUHU216HW,2013-03-23 23:34:00,
2013-03-23 19:39:00,34.0,22.7,29.78,North,0,0.0,0.0,63,0.00,,,0.00,WUHU216HW,2013-03-23 23:39:00,
2013-03-23 19:44:00,33.8,22.5,29.78,North,0,0.0,0.0,63,0.00,,,0.00,WUHU216HW,2013-03-23 23:44:00,
2013-03-23 19:49:00,33.5,22.5,29.77,North,0,0.0,0.0,64,0.00,,,0.00,WUHU216HW,2013-03-23 23:49:00,
2013-03-23 19:54:00,33.1,22.2,29.77,North,0,0.0,0.0,64,0.00,,,0.00,WUHU216HW,2013-03-23 23:54:00,
2013-03-23 19:59:00,32.8,22.2,29.77,North,0,0.0,0.0,65,0.00,,,0.00,WUHU216HW,2013-03-23 23:59:00,
2013-03-23 20:04:00,32.4,22.0,29.77,North,0,0.0,0.0,65,0.00,,,0.00,WUHU216HW,2013-03-24 00:04:00,
2013-03-23 20:09:00,32.2,22.2,29.77,North,0,0.0,0.0,66,0.00,,,0.00,WUHU216HW,2013-03-24 00:09:00,
2013-03-23 20:14:00,32.0,22.0,29.77,North,0,0.0,0.0,66,0.00,,,0.00,WUHU216HW,2013-03-24 00:14:00,
2013-03-23 20:19:00,31.9,21.8,29.77,North,0,0.0,0.0,66,0.00,,,0.00,WUHU216HW,2013-03-24 00:19:00,
2013-03-23 20:24:00,31.7,21.6,29.77,North,0,0.0,0.0,66,0.00,,,0.00,WUHU216HW,2013-03-24 00:24:00,
2013-03-23 20:29:00,31.3,21.6,29.77,North,0,0.0,0.0,67,0.00,,,0.00,WUHU216HW,2013-03-24 00:29:00,
2013-03-23 20:34:00,31.3,21.6,29.77,North,0,0.0,0.0,67,0.00,,,0.00,WUHU216HW,2013-03-24 00:34:00,
2013-03-23 20:39:00,31.1,21.8,29.77,North,0,0.0,0.0,68,0.00,,,0.00,WUHU216HW,2013-03-24 00:39:00,
2013-03-23 20:44:00,31.0,21.2,29.78,North,0,0.0,0.0,67,0.00,,,0.00,WUHU216HW,2013-03-24 00:44:00,
2013-03-23 20:49:00,30.8,21.4,29.78,North,0,0.0,0.0,68,0.00,,,0.00,WUHU216HW,2013-03-24 00:49:00,
2013-03-23 20:54:00,30.6,21.2,29.78,North,0,0.0,0.0,68,0.00,,,0.00,WUHU216HW,2013-03-24 00:54:00,
2013-03-23 20:59:00,30.4,21.1,29.79,North,0,0.0,0.0,68,0.00,,,0.00,WUHU216HW,2013-03-24 00:59:00,
2013-03-23 21:04:00,30.2,20.9,29.79,North,0,0.0,0.0,68,0.00,,,0.00,WUHU216HW,2013-03-24 01:04:00,
2013-03-23 21:09:00,29.9,20.5,29.79,North,0,0.0,0.0,68,0.00,,,0.00,WUHU216HW,2013-03-24 01:09:00,
2013-03-23 21:14:00,29.9,20.9,29.79,North,0,0.0,0.0,69,0.00,,,0.00,WUHU216HW,2013-03-24 01:14:00,
2013-03-23 21:19:00,29.9,20.9,29.79,North,0,0.0,0.0,69,0.00,,,0.00,WUHU216HW,2013-03-24 01:19:00,
2013-03-23 21:24:00,29.7,21.2,29.79,North,0,0.0,0.0,70,0.00,,,0.00,WUHU216HW,2013-03-24 01:24:00,
2013-03-23 21:29:00,29.9,21.2,29.79,North,0,0.0,0.0,70,0.00,,,0.00,WUHU216HW,2013-03-24 01:29:00,
2013-03-23 21:34:00,29.7,21.2,29.79,North,0,0.0,0.0,70,0.00,,,0.00,WUHU216HW,2013-03-24 01:34:00,
2013-03-23 21:39:00,29.5,21.0,29.79,North,0,0.0,0.0,70,0.00,,,0.00,WUHU216HW,2013-03-24 01:39:00,
2013-03-23 21:44:00,29.3,20.8,29.79,North,0,0.0,0.0,70,0.00,,,0.00,WUHU216HW,2013-03-24 01:44:00,
2013-03-23 21:49:00,29.0,20.4,29.79,North,0,0.0,0.0,70,0.00,,,0.00,WUHU216HW,2013-03-24 01:49:00,
2013-03-23 21:54:00,28.6,20.2,29.79,North,0,0.0,0.0,70,0.00,,,0.00,WUHU216HW,2013-03-24 01:54:00,
2013-03-23 21:59:00,28.1,19.6,29.79,North,0,0.0,0.0,70,0.00,,,0.00,WUHU216HW,2013-03-24 01:59:00,
2013-03-23 22:04:00,27.7,19.3,29.79,North,0,0.0,0.0,70,0.00,,,0.00,WUHU216HW,2013-03-24 02:04:00,
2013-03-23 22:09:00,27.5,19.4,29.79,North,0,0.0,0.0,71,0.00,,,0.00,WUHU216HW,2013-03-24 02:09:00,
2013-03-23 22:14:00,27.4,19.2,29.79,North,0,0.0,0.0,71,0.00,,,0.00,WUHU216HW,2013-03-24 02:14:00,
2013-03-23 22:19:00,27.4,19.5,29.79,North,0,0.0,0.0,72,0.00,,,0.00,WUHU216HW,2013-03-24 02:19:00,
2013-03-23 22:24:00,27.5,19.7,29.79,North,0,0.0,0.0,72,0.00,,,0.00,WUHU216HW,2013-03-24 02:24:00,
2013-03-23 22:29:00,27.4,19.5,29.79,North,0,0.0,0.0,72,0.00,,,0.00,WUHU216HW,2013-03-24 02:29:00,
2013-03-23 22:34:00,27.4,19.5,29.79,North,0,0.0,0.0,72,0.00,,,0.00,WUHU216HW,2013-03-24 02:34:00,
2013-03-23 22:39:00,27.5,20.0,29.78,North,0,0.0,0.0,73,0.00,,,0.00,WUHU216HW,2013-03-24 02:39:00,
2013-03-23 22:44:00,27.5,20.0,29.79,North,0,0.0,0.0,73,0.00,,,0.00,WUHU216HW,2013-03-24 02:44:00,
2013-03-23 22:49:00,27.5,20.0,29.78,North,0,0.0,0.0,73,0.00,,,0.00,WUHU216HW,2013-03-24 02:49:00,
2013-03-23 22:54:00,27.5,20.0,29.78,North,0,0.0,0.0,73,0.00,,,0.00,WUHU216HW,2013-03-24 02:54:00,
2013-03-23 22:59:00,27.4,19.5,29.78,North,0,0.0,0.0,72,0.00,,,0.00,WUHU216HW,2013-03-24 02:59:00,
2013-03-23 23:04:00,27.0,19.2,29.78,North,0,0.0,0.0,72,0.00,,,0.00,WUHU216HW,2013-03-24 03:04:00,
2013-03-23 23:09:00,27.2,19.6,29.78,North,0,0.0,0.0,73,0.00,,,0.00,WUHU216HW,2013-03-24 03:09:00,
2013-03-23 23:14:00,27.0,19.8,29.77,North,0,0.0,0.0,74,0.00,,,0.00,WUHU216HW,2013-03-24 03:14:00,
2013-03-23 23:19:00,27.0,19.4,29.78,North,0,0.0,0.0,73,0.00,,,0.00,WUHU216HW,2013-03-24 03:19:00,
2013-03-23 23:24:00,27.0,19.4,29.78,North,0,0.0,0.0,73,0.00,,,0.00,WUHU216HW,2013-03-24 03:24:00,
2013-03-23 23:29:00,27.0,19.8,29.78,North,0,0.0,0.0,74,0.00,,,0.00,WUHU216HW,2013-03-24 03:29:00,
2013-03-23 23:34:00,27.0,19.8,29.78,North,0,0.0,0.0,74,0.00,,,0.00,WUHU216HW,2013-03-24 03:34:00,
2013-03-23 23:39:00,27.0,19.8,29.78,North,0,0.0,0.0,74,0.00,,,0.00,WUHU216HW,2013-03-24 03:39:00,
2013-03-23 23:44:00,26.8,19.6,29.78,North,0,0.0,0.0,74,0.00,,,0.00,WUHU216HW,2013-03-24 03:44:00,
2013-03-23 23:49:00,26.6,19.5,29.78,North,0,0.0,0.0,74,0.00,,,0.00,WUHU216HW,2013-03-24 03:49:00,
2013-03-23 23:54:00,26.5,19.3,29.78,North,0,0.0,0.0,74,0.00,,,0.00,WUHU216HW,2013-03-24 03:54:00,
2013-03-23 23:59:00,26.3,19.4,29.77,North,0,0.0,0.0,75,0.00,,,0.00,WUHU216HW,2013-03-24 03:59:00,